createdAt,value
2022-10-17T00:01:17.835Z,1.53
2022-10-17T00:03:45.553Z,1.13
2022-10-17T00:06:16.027Z,1.30
2022-10-17T00:08:45.196Z,1.80
2022-10-17T00:11:16.882Z,1.80
2022-10-17T00:13:46.717Z,2.23
2022-10-17T00:16:15.711Z,2.00
2022-10-17T00:18:43.397Z,1.73
2022-10-17T00:21:17.124Z,1.40
2022-10-17T00:23:44.997Z,2.60
2022-10-17T00:26:12.868Z,1.30
2022-10-17T00:28:40.622Z,0.80
2022-10-17T00:31:12.576Z,0.93
2022-10-17T00:33:40.287Z,0.83
2022-10-17T00:36:10.850Z,1.10
2022-10-17T00:38:38.623Z,1.87
2022-10-17T00:41:07.479Z,1.87
2022-10-17T00:43:54.567Z,1.50
2022-10-17T00:46:26.431Z,2.03
2022-10-17T00:48:56.457Z,2.60
2022-10-17T00:51:32.456Z,2.10
2022-10-17T00:54:01.685Z,2.10
2022-10-17T00:56:29.916Z,1.70
2022-10-17T00:58:58.106Z,1.57
2022-10-17T01:01:27.981Z,1.93
2022-10-17T01:03:55.726Z,1.20
2022-10-17T01:06:24.423Z,1.60
2022-10-17T01:08:52.346Z,1.60
2022-10-17T01:11:34.246Z,1.50
2022-10-17T01:14:08.587Z,1.67
2022-10-17T01:16:45.135Z,1.80
2022-10-17T01:19:33.030Z,2.20
2022-10-17T01:22:04.487Z,1.70
2022-10-17T01:24:59.784Z,2.47
2022-10-17T01:27:49.863Z,2.03
2022-10-17T01:30:51.898Z,2.17
2022-10-17T01:33:31.770Z,1.03
2022-10-17T01:36:05.817Z,1.43
2022-10-17T01:38:38.376Z,1.40
2022-10-17T01:41:11.855Z,1.50
2022-10-17T01:43:45.464Z,1.50
2022-10-17T01:46:18.700Z,1.50
2022-10-17T01:48:49.851Z,2.20
2022-10-17T01:51:22.784Z,1.00
2022-10-17T01:53:55.742Z,1.53
2022-10-17T01:56:26.794Z,1.47
2022-10-17T01:58:58.517Z,1.67
2022-10-17T02:01:30.718Z,1.53
2022-10-17T02:04:03.780Z,1.60
2022-10-17T02:06:36.186Z,0.70
2022-10-17T02:09:18.966Z,0.63
2022-10-17T02:11:55.390Z,0.90
2022-10-17T02:14:33.303Z,1.93
2022-10-17T02:17:10.017Z,1.40
2022-10-17T02:19:49.936Z,1.63
2022-10-17T02:22:29.351Z,1.47
2022-10-17T02:25:03.473Z,1.20
2022-10-17T02:27:44.177Z,0.90
2022-10-17T02:30:15.799Z,1.20
2022-10-17T02:32:51.035Z,1.33
2022-10-17T02:35:25.185Z,1.57
2022-10-17T02:37:54.861Z,1.17
2022-10-17T02:40:25.477Z,2.30
2022-10-17T02:42:56.661Z,1.67
2022-10-17T02:45:27.355Z,1.77
2022-10-17T02:48:00.957Z,1.90
2022-10-17T02:50:39.537Z,1.47
2022-10-17T02:53:12.703Z,1.00
2022-10-17T02:55:46.987Z,1.20
2022-10-17T02:58:21.140Z,1.47
2022-10-17T03:00:50.086Z,1.40
2022-10-17T03:03:24.025Z,1.33
2022-10-17T03:05:54.125Z,1.83
2022-10-17T03:08:27.501Z,1.17
2022-10-17T03:10:56.803Z,1.23
2022-10-17T03:13:27.149Z,1.07
2022-10-17T03:15:54.928Z,0.97
2022-10-17T03:18:23.429Z,0.80
2022-10-17T03:20:56.304Z,1.27
2022-10-17T03:23:24.549Z,0.97
2022-10-17T03:25:53.001Z,1.33
2022-10-17T03:28:20.804Z,0.87
2022-10-17T03:30:48.527Z,1.20
2022-10-17T03:33:17.035Z,0.80
2022-10-17T03:35:44.747Z,0.53
2022-10-17T03:38:14.680Z,0.70
2022-10-17T03:40:42.585Z,0.77
2022-10-17T03:43:12.312Z,1.43
2022-10-17T03:45:42.099Z,0.87
2022-10-17T03:48:09.824Z,0.93
2022-10-17T03:50:37.496Z,2.30
2022-10-17T03:53:06.068Z,0.20
2022-10-17T03:55:35.108Z,0.50
2022-10-17T03:58:03.508Z,0.33
2022-10-17T04:00:31.698Z,1.60
2022-10-17T04:03:00.200Z,0.40
2022-10-17T04:05:28.046Z,1.17
2022-10-17T04:07:59.862Z,0.53
2022-10-17T04:10:51.446Z,0.50
2022-10-17T04:13:19.629Z,0.50
2022-10-17T04:15:55.209Z,0.30
2022-10-17T04:18:23.558Z,0.50
2022-10-17T04:20:51.781Z,0.87
2022-10-17T04:23:21.676Z,8.30
2022-10-17T04:25:56.917Z,8.00
2022-10-17T04:28:26.638Z,3.60
2022-10-17T04:30:58.471Z,1.33
2022-10-17T04:33:30.577Z,0.60
2022-10-17T04:35:59.313Z,0.67
2022-10-17T04:38:28.933Z,1.10
2022-10-17T04:41:00.031Z,0.70
2022-10-17T04:43:28.058Z,1.23
2022-10-17T04:45:55.896Z,1.07
2022-10-17T04:48:23.673Z,1.40
2022-10-17T04:50:55.158Z,1.10
2022-10-17T04:53:34.287Z,0.90
2022-10-17T04:56:09.247Z,1.00
2022-10-17T04:58:37.576Z,1.10
2022-10-17T05:01:07.630Z,0.80
2022-10-17T05:03:36.684Z,1.50
2022-10-17T05:06:06.730Z,0.77
2022-10-17T05:08:35.032Z,1.17
2022-10-17T05:11:05.749Z,0.80
2022-10-17T05:13:34.221Z,1.60
2022-10-17T05:16:02.962Z,1.10
2022-10-17T05:18:31.020Z,0.90
2022-10-17T05:20:58.713Z,0.80
2022-10-17T05:23:27.080Z,1.50
2022-10-17T05:25:55.953Z,1.43
2022-10-17T05:28:26.821Z,0.67
2022-10-17T05:30:58.253Z,0.83
2022-10-17T05:33:26.526Z,2.13
2022-10-17T05:35:54.334Z,0.67
2022-10-17T05:38:22.020Z,2.20
2022-10-17T05:40:50.910Z,2.10
2022-10-17T05:43:19.255Z,0.93
2022-10-17T05:45:49.439Z,1.57
2022-10-17T05:48:21.197Z,1.60
2022-10-17T05:50:48.895Z,1.00
2022-10-17T05:53:18.372Z,1.00
2022-10-17T05:55:56.938Z,0.90
2022-10-17T05:58:45.571Z,1.20
2022-10-17T06:01:25.708Z,1.70
2022-10-17T06:03:54.829Z,1.30
2022-10-17T06:06:22.600Z,2.87
2022-10-17T06:08:51.916Z,1.17
2022-10-17T06:11:25.141Z,1.37
2022-10-17T06:13:53.509Z,1.80
2022-10-17T06:16:27.025Z,0.80
2022-10-17T06:18:55.110Z,1.10
2022-10-17T06:21:24.542Z,1.00
2022-10-17T06:23:55.147Z,1.17
2022-10-17T06:26:30.459Z,0.80
2022-10-17T06:28:58.758Z,1.07
2022-10-17T06:31:31.880Z,1.27
2022-10-17T06:33:59.562Z,0.80
2022-10-17T06:36:27.299Z,1.17
2022-10-17T06:38:56.033Z,1.70
2022-10-17T06:41:35.394Z,1.60
2022-10-17T06:44:10.961Z,1.73
2022-10-17T06:46:59.463Z,0.80
2022-10-17T06:49:28.381Z,0.90
2022-10-17T06:52:00.793Z,3.03
2022-10-17T06:54:41.613Z,1.53
2022-10-17T06:57:32.661Z,1.57
2022-10-17T07:00:23.683Z,2.27
2022-10-17T07:02:57.445Z,1.37
2022-10-17T07:05:25.201Z,1.63
2022-10-17T07:07:52.968Z,1.77
2022-10-17T07:10:20.814Z,1.10
2022-10-17T07:12:48.909Z,1.93
2022-10-17T07:15:16.639Z,1.13
2022-10-17T07:17:50.511Z,1.10
2022-10-17T07:20:20.768Z,1.50
2022-10-17T07:22:49.761Z,1.17
2022-10-17T07:25:17.524Z,0.63
2022-10-17T07:27:53.173Z,1.53
2022-10-17T07:30:22.673Z,0.70
2022-10-17T07:32:55.668Z,1.13
2022-10-17T07:35:24.677Z,1.30
2022-10-17T07:37:53.112Z,2.00
2022-10-17T07:40:22.127Z,1.73
2022-10-17T07:42:50.241Z,2.67
2022-10-17T07:45:18.330Z,1.00
2022-10-17T07:47:48.456Z,1.40
2022-10-17T07:50:17.217Z,1.33
2022-10-17T07:52:46.557Z,1.10
2022-10-17T07:55:14.285Z,1.23
2022-10-17T07:57:42.257Z,1.10
2022-10-17T08:00:10.707Z,1.83
2022-10-17T08:02:42.186Z,1.17
2022-10-17T08:05:10.265Z,1.37
2022-10-17T08:07:38.332Z,1.00
2022-10-17T08:12:37.695Z,0.90
2022-10-17T08:15:06.870Z,1.10
2022-10-17T08:17:35.915Z,1.40
2022-10-17T08:20:04.106Z,0.80
2022-10-17T08:22:32.307Z,1.23
2022-10-17T08:25:00.447Z,0.80
2022-10-17T08:27:30.073Z,1.00
2022-10-17T08:29:57.746Z,2.07
2022-10-17T08:32:28.111Z,0.83
2022-10-17T08:34:57.149Z,0.70
2022-10-17T08:37:25.011Z,0.90
2022-10-17T08:39:52.949Z,0.67
2022-10-17T08:42:46.694Z,1.60
2022-10-17T08:45:21.906Z,1.50
2022-10-17T08:47:58.232Z,1.27
2022-10-17T08:50:33.516Z,1.00
2022-10-17T08:53:07.262Z,1.00
2022-10-17T08:55:41.348Z,0.77
2022-10-17T08:58:16.493Z,0.77
2022-10-17T09:00:50.890Z,0.90
2022-10-17T09:03:32.073Z,0.70
2022-10-17T09:06:12.096Z,0.97
2022-10-17T09:08:49.436Z,1.00
2022-10-17T09:11:30.451Z,0.60
2022-10-17T09:14:14.355Z,2.17
2022-10-17T09:16:53.849Z,0.80
2022-10-17T09:19:24.673Z,0.70
2022-10-17T09:21:57.836Z,0.80
2022-10-17T09:24:44.365Z,0.83
2022-10-17T09:27:20.997Z,0.50
2022-10-17T09:29:54.069Z,0.83
2022-10-17T09:32:25.414Z,1.37
2022-10-17T09:34:54.110Z,1.13
2022-10-17T09:37:34.010Z,1.07
2022-10-17T09:40:01.724Z,0.80
2022-10-17T09:42:30.085Z,0.80
2022-10-17T09:45:19.366Z,0.50
2022-10-17T09:47:53.924Z,0.90
2022-10-17T09:50:27.277Z,0.90
2022-10-17T09:52:57.210Z,1.05
2022-10-17T09:55:34.764Z,0.50
2022-10-17T09:58:04.851Z,0.98
2022-10-17T10:00:35.943Z,0.90
2022-10-17T10:03:17.079Z,0.85
2022-10-17T10:06:00.232Z,0.68
2022-10-17T10:08:31.932Z,0.82
2022-10-17T10:11:03.390Z,0.90
2022-10-17T10:13:33.099Z,2.00
2022-10-17T10:16:24.435Z,0.65
2022-10-17T10:18:53.701Z,1.52
2022-10-17T10:21:23.326Z,1.13
2022-10-17T10:24:06.386Z,1.73
2022-10-17T10:26:39.435Z,1.00
2022-10-17T10:29:21.092Z,1.30
2022-10-17T10:31:51.398Z,0.95
2022-10-17T10:34:23.803Z,1.00
2022-10-17T10:36:58.229Z,1.10
2022-10-17T10:39:33.323Z,0.85
2022-10-17T10:42:02.140Z,1.15
2022-10-17T10:44:33.359Z,1.08
2022-10-17T10:47:10.695Z,1.08
2022-10-17T10:49:40.062Z,0.95
2022-10-17T10:52:11.697Z,1.02
2022-10-17T10:54:43.413Z,1.02
2022-10-17T10:57:20.482Z,0.73
2022-10-17T11:00:03.194Z,0.70
2022-10-17T11:02:41.726Z,0.50
2022-10-17T11:05:16.685Z,1.55
2022-10-17T11:07:52.399Z,0.70
2022-10-17T11:10:26.323Z,0.95
2022-10-17T11:13:02.383Z,0.98
2022-10-17T11:15:36.828Z,0.80
2022-10-17T11:18:09.336Z,0.60
2022-10-17T11:20:43.129Z,0.55
2022-10-17T11:23:20.311Z,1.08
2022-10-17T11:25:50.995Z,1.08
2022-10-17T11:28:20.931Z,0.70
2022-10-17T11:30:53.197Z,0.88
2022-10-17T11:33:28.236Z,1.67
2022-10-17T11:36:01.192Z,0.73
2022-10-17T11:38:39.376Z,0.80
2022-10-17T11:41:09.995Z,1.05
2022-10-17T11:43:45.203Z,1.27
2022-10-17T11:46:18.916Z,0.70
2022-10-17T11:48:59.537Z,0.80
2022-10-17T11:54:19.935Z,0.70
2022-10-17T11:56:54.334Z,1.25
2022-10-17T11:59:43.452Z,1.00
2022-10-17T12:02:18.017Z,0.95
2022-10-17T12:04:57.988Z,0.67
2022-10-17T12:07:36.162Z,0.80
2022-10-17T12:10:17.662Z,0.93
2022-10-17T12:12:45.348Z,0.83
2022-10-17T12:15:30.050Z,0.80
2022-10-17T12:18:01.563Z,0.80
2022-10-17T12:20:36.446Z,0.90
2022-10-17T12:23:24.733Z,0.93
2022-10-17T12:25:57.006Z,0.93
2022-10-17T12:28:31.135Z,2.23
2022-10-17T12:31:02.026Z,1.63
2022-10-17T12:33:36.458Z,2.10
2022-10-17T12:36:47.914Z,1.07
2022-10-17T12:39:45.974Z,1.00
2022-10-17T12:42:51.466Z,1.43
2022-10-17T12:45:47.002Z,1.40
2022-10-17T12:48:22.118Z,0.97
2022-10-17T12:51:30.840Z,1.13
2022-10-17T12:53:59.634Z,1.00
2022-10-17T12:56:38.286Z,2.47
2022-10-17T12:59:17.947Z,1.30
2022-10-17T13:01:49.323Z,1.30
2022-10-17T13:04:19.034Z,1.13
2022-10-17T13:06:48.411Z,3.10
2022-10-17T13:09:27.602Z,3.03
2022-10-17T13:11:58.053Z,0.83
2022-10-17T13:14:29.026Z,2.10
2022-10-17T13:16:59.052Z,0.83
2022-10-17T13:19:30.174Z,0.90
2022-10-17T13:22:05.321Z,1.97
2022-10-17T13:24:37.322Z,2.47
2022-10-17T13:27:06.397Z,0.70
2022-10-17T13:29:35.769Z,0.97
2022-10-17T13:32:05.675Z,1.00
2022-10-17T13:34:35.252Z,0.85
2022-10-17T13:37:05.128Z,1.00
2022-10-17T13:39:54.499Z,1.10
2022-10-17T13:42:26.758Z,1.03
2022-10-17T13:44:56.829Z,1.07
2022-10-17T13:47:28.212Z,1.23
2022-10-17T13:49:57.425Z,1.13
2022-10-17T13:52:29.486Z,0.80
2022-10-17T13:55:08.555Z,1.20
2022-10-17T13:57:36.573Z,1.00
2022-10-17T14:00:11.514Z,1.00
2022-10-17T14:02:42.839Z,2.33
2022-10-17T14:05:19.070Z,1.70
2022-10-17T14:10:43.573Z,0.90
2022-10-17T14:13:23.006Z,0.97
2022-10-17T14:15:53.573Z,1.17
2022-10-17T14:18:26.386Z,1.27
2022-10-17T14:21:32.080Z,1.07
2022-10-17T14:23:44.418Z,1.30
2022-10-17T14:26:15.210Z,1.33
2022-10-17T14:28:45.679Z,1.20
2022-10-17T14:31:24.908Z,1.23
2022-10-17T14:33:54.863Z,1.03
2022-10-17T14:36:32.554Z,0.80
2022-10-17T14:39:01.949Z,0.97
2022-10-17T14:41:48.311Z,0.80
2022-10-17T14:44:21.886Z,1.20
2022-10-17T14:46:55.852Z,1.17
2022-10-17T14:49:29.601Z,2.10
2022-10-17T14:52:28.595Z,1.40
2022-10-17T14:54:57.753Z,1.33
2022-10-17T14:57:42.225Z,1.37
2022-10-17T15:00:15.127Z,1.03
2022-10-17T15:02:45.702Z,2.93
2022-10-17T15:05:13.993Z,0.97
2022-10-17T15:07:42.505Z,0.77
2022-10-17T15:10:25.892Z,1.80
2022-10-17T15:12:59.380Z,1.80
2022-10-17T15:15:39.102Z,2.47
2022-10-17T15:18:09.075Z,1.97
2022-10-17T15:20:36.973Z,1.30
2022-10-17T15:23:05.277Z,2.93
2022-10-17T15:25:34.197Z,3.20
2022-10-17T15:28:02.207Z,4.30
2022-10-17T15:30:32.045Z,5.10
2022-10-17T15:33:00.994Z,4.77
2022-10-17T15:35:30.291Z,4.40
2022-10-17T15:37:58.380Z,2.10
2022-10-17T15:40:28.775Z,1.90
2022-10-17T15:42:57.506Z,1.33
2022-10-17T15:45:25.874Z,1.63
2022-10-17T15:47:56.913Z,1.47
2022-10-17T15:50:24.601Z,2.23
2022-10-17T15:52:54.315Z,3.50
2022-10-17T15:55:22.032Z,2.87
2022-10-17T15:57:50.170Z,2.30
2022-10-17T16:00:20.119Z,1.70
2022-10-17T16:02:49.234Z,1.70
2022-10-17T16:05:23.021Z,1.23
2022-10-17T16:07:51.138Z,1.40
2022-10-17T16:10:21.089Z,1.17
2022-10-17T16:12:50.617Z,1.67
2022-10-17T16:15:22.502Z,3.10
2022-10-17T16:17:51.015Z,2.80
2022-10-17T16:20:19.826Z,2.60
2022-10-17T16:22:49.239Z,2.43
2022-10-17T16:25:21.455Z,1.90
2022-10-17T16:27:51.795Z,1.93
2022-10-17T16:32:49.189Z,2.43
2022-10-17T16:35:19.171Z,2.00
2022-10-17T16:37:47.851Z,2.97
2022-10-17T16:40:15.819Z,1.70
2022-10-17T16:42:45.937Z,2.50
2022-10-17T16:45:17.661Z,2.40
2022-10-17T16:47:46.131Z,2.40
2022-10-17T16:50:14.435Z,3.40
2022-10-17T16:52:43.327Z,3.07
2022-10-17T16:55:11.733Z,2.97
2022-10-17T16:57:40.137Z,3.00
2022-10-17T17:00:11.909Z,2.23
2022-10-17T17:02:39.704Z,2.73
2022-10-17T17:05:08.226Z,3.80
2022-10-17T17:07:35.943Z,2.70
2022-10-17T17:10:04.031Z,2.50
2022-10-17T17:12:33.649Z,3.10
2022-10-17T17:15:02.086Z,2.47
2022-10-17T17:17:48.836Z,3.33
2022-10-17T17:20:19.689Z,3.40
2022-10-17T17:22:47.354Z,2.53
2022-10-17T17:25:15.637Z,3.03
2022-10-17T17:27:43.312Z,1.40
2022-10-17T17:30:12.131Z,2.67
2022-10-17T17:32:41.193Z,2.60
2022-10-17T17:35:10.018Z,2.90
2022-10-17T17:37:37.745Z,2.67
2022-10-17T17:40:06.926Z,3.13
2022-10-17T17:42:34.670Z,2.67
2022-10-17T17:45:03.153Z,3.23
2022-10-17T17:47:31.143Z,4.33
2022-10-17T17:50:00.950Z,2.30
2022-10-17T17:52:29.769Z,2.63
2022-10-17T17:54:58.071Z,2.63
2022-10-17T17:57:25.833Z,5.33
2022-10-17T17:59:54.029Z,3.10
2022-10-17T18:02:21.747Z,2.77
2022-10-17T18:04:50.318Z,2.73
2022-10-17T18:07:19.342Z,3.40
2022-10-17T18:09:48.394Z,2.47
2022-10-17T18:12:16.080Z,3.00
2022-10-17T18:14:44.326Z,4.13
2022-10-17T18:17:12.027Z,5.93
2022-10-17T18:19:39.712Z,8.07
2022-10-17T18:22:07.446Z,6.73
2022-10-17T18:24:36.498Z,5.00
2022-10-17T18:27:04.219Z,6.83
2022-10-17T18:29:32.763Z,8.43
2022-10-17T18:32:00.914Z,5.20
2022-10-17T18:34:29.185Z,3.47
2022-10-17T18:36:58.802Z,2.90
2022-10-17T18:39:27.259Z,3.83
2022-10-17T18:41:56.289Z,4.30
2022-10-17T18:44:24.424Z,4.20
2022-10-17T18:46:52.363Z,3.47
2022-10-17T18:49:23.096Z,3.57
2022-10-17T18:51:50.970Z,2.80
2022-10-17T18:54:21.844Z,3.43
2022-10-17T18:56:51.221Z,3.70
2022-10-17T18:59:22.014Z,5.03
2022-10-17T19:01:49.757Z,6.07
2022-10-17T19:04:17.986Z,3.87
2022-10-17T19:06:46.576Z,4.80
2022-10-17T19:09:15.278Z,5.00
2022-10-17T19:11:44.233Z,4.50
2022-10-17T19:14:14.158Z,4.67
2022-10-17T19:16:44.690Z,4.60
2022-10-17T19:19:15.521Z,4.53
2022-10-17T19:21:43.995Z,4.13
2022-10-17T19:24:14.585Z,3.60
2022-10-17T19:26:43.335Z,3.90
2022-10-17T19:29:14.273Z,3.93
2022-10-17T19:31:44.101Z,4.57
2022-10-17T19:34:12.448Z,3.50
2022-10-17T19:36:40.595Z,5.07
2022-10-17T19:39:11.814Z,7.07
2022-10-17T19:41:41.299Z,6.23
2022-10-17T19:44:09.195Z,5.50
2022-10-17T19:46:37.333Z,4.40
2022-10-17T19:49:07.491Z,5.17
2022-10-17T19:51:35.445Z,4.40
2022-10-17T19:54:03.294Z,4.53
2022-10-17T19:56:32.954Z,3.40
2022-10-17T19:59:00.663Z,3.07
2022-10-17T20:01:30.913Z,3.77
2022-10-17T20:03:59.052Z,3.47
2022-10-17T20:06:28.460Z,3.90
2022-10-17T20:08:56.837Z,3.93
2022-10-17T20:11:26.286Z,3.73
2022-10-17T20:13:55.020Z,3.63
2022-10-17T20:16:24.489Z,2.93
2022-10-17T20:18:54.894Z,2.70
2022-10-17T20:21:24.829Z,3.97
2022-10-17T20:23:54.671Z,4.77
2022-10-17T20:26:33.522Z,3.93
2022-10-17T20:29:12.061Z,4.97
2022-10-17T20:31:41.097Z,4.07
2022-10-17T20:34:09.755Z,4.03
2022-10-17T20:36:37.796Z,4.50
2022-10-17T20:39:07.899Z,3.47
2022-10-17T20:41:36.026Z,3.87
2022-10-17T20:44:04.172Z,3.37
2022-10-17T20:46:44.812Z,2.70
2022-10-17T20:49:18.475Z,3.30
2022-10-17T20:51:46.462Z,4.33
2022-10-17T20:54:16.092Z,4.43
2022-10-17T20:56:43.810Z,3.90
2022-10-17T20:59:16.313Z,4.03
2022-10-17T21:01:44.913Z,4.03
2022-10-17T21:04:46.392Z,3.23
2022-10-17T21:07:00.985Z,2.83
2022-10-17T21:09:30.474Z,4.07
2022-10-17T21:11:58.525Z,3.83
2022-10-17T21:14:26.557Z,3.13
2022-10-17T21:16:54.215Z,3.23
2022-10-17T21:19:22.926Z,4.80
2022-10-17T21:21:50.857Z,4.07
2022-10-17T21:24:20.458Z,3.60
2022-10-17T21:26:55.680Z,3.33
2022-10-17T21:29:24.355Z,2.87
2022-10-17T21:31:53.338Z,5.07
2022-10-17T21:34:23.876Z,3.27
2022-10-17T21:36:52.339Z,2.90
2022-10-17T21:39:20.435Z,3.17
2022-10-17T21:41:49.500Z,2.27
2022-10-17T21:44:18.674Z,3.10
2022-10-17T21:46:47.637Z,3.57
2022-10-17T21:49:18.431Z,3.00
2022-10-17T21:51:47.481Z,3.40
2022-10-17T21:54:16.442Z,5.40
2022-10-17T21:56:44.233Z,3.97
2022-10-17T21:59:13.798Z,3.17
2022-10-17T22:01:44.227Z,3.53
2022-10-17T22:04:13.782Z,3.17
2022-10-17T22:06:43.688Z,3.60
2022-10-17T22:09:15.455Z,3.30
2022-10-17T22:11:45.833Z,3.13
2022-10-17T22:14:17.240Z,2.50
2022-10-17T22:16:46.242Z,2.63
2022-10-17T22:19:15.914Z,3.07
2022-10-17T22:21:43.943Z,2.60
2022-10-17T22:24:14.254Z,3.97
2022-10-17T22:26:42.426Z,3.43
2022-10-17T22:29:10.561Z,2.93
2022-10-17T22:31:40.142Z,2.67
2022-10-17T22:34:08.815Z,3.23
2022-10-17T22:36:36.921Z,2.97
2022-10-17T22:39:05.271Z,3.73
2022-10-17T22:41:33.412Z,3.30
2022-10-17T22:44:01.274Z,2.77
2022-10-17T22:46:29.909Z,2.90
2022-10-17T22:48:59.073Z,3.07
2022-10-17T22:51:27.629Z,2.60
2022-10-17T22:53:55.486Z,2.87
2022-10-17T22:56:24.179Z,2.20
2022-10-17T22:58:52.099Z,2.83
2022-10-17T23:01:22.423Z,2.00
2022-10-17T23:03:50.841Z,2.93
2022-10-17T23:06:20.292Z,2.97
2022-10-17T23:08:48.394Z,3.07
2022-10-17T23:11:16.517Z,2.80
2022-10-17T23:13:44.245Z,2.50
2022-10-17T23:16:27.259Z,2.57
2022-10-17T23:18:55.471Z,3.70
2022-10-17T23:21:24.791Z,3.17
2022-10-17T23:23:52.498Z,2.93
2022-10-17T23:26:20.444Z,2.43
2022-10-17T23:28:48.185Z,3.43
2022-10-17T23:31:18.696Z,2.47
2022-10-17T23:33:47.795Z,2.20
2022-10-17T23:36:17.590Z,2.97
2022-10-17T23:38:47.839Z,2.20
2022-10-17T23:41:15.918Z,3.60
2022-10-17T23:43:44.033Z,2.47
2022-10-17T23:46:12.710Z,2.53
2022-10-17T23:48:41.302Z,2.13
2022-10-17T23:51:10.534Z,1.87
2022-10-17T23:53:39.119Z,1.63
2022-10-17T23:56:09.973Z,2.30
2022-10-17T23:58:38.190Z,2.50
